createdAt,value
2017-12-06T00:00:58.462Z,53.00
2017-12-06T00:03:25.966Z,53.00
2017-12-06T00:05:53.483Z,53.00
2017-12-06T00:08:21.142Z,52.90
2017-12-06T00:10:48.731Z,53.00
2017-12-06T00:13:21.866Z,53.10
2017-12-06T00:15:49.799Z,53.00
2017-12-06T00:18:18.542Z,53.00
2017-12-06T00:20:46.511Z,53.00
2017-12-06T00:23:15.078Z,52.90
2017-12-06T00:25:42.596Z,52.90
2017-12-06T00:28:10.209Z,52.90
2017-12-06T00:30:38.995Z,52.90
2017-12-06T00:33:06.861Z,52.80
2017-12-06T00:35:35.851Z,52.80
2017-12-06T00:38:03.820Z,52.80
2017-12-06T00:40:32.571Z,52.90
2017-12-06T00:43:00.534Z,53.00
2017-12-06T00:45:28.875Z,52.90
2017-12-06T00:47:56.788Z,52.80
2017-12-06T00:50:24.787Z,52.70
2017-12-06T00:52:52.650Z,52.80
2017-12-06T00:55:20.349Z,52.70
2017-12-06T00:57:47.889Z,52.80
2017-12-06T01:00:15.432Z,52.70
2017-12-06T01:02:42.929Z,52.60
2017-12-06T01:05:11.205Z,52.70
2017-12-06T01:07:39.498Z,52.60
2017-12-06T01:10:07.809Z,53.30
2017-12-06T01:12:35.304Z,52.70
2017-12-06T01:15:02.817Z,52.60
2017-12-06T01:17:31.285Z,52.60
2017-12-06T01:19:58.806Z,52.50
2017-12-06T01:22:27.068Z,52.60
2017-12-06T01:24:54.597Z,52.70
2017-12-06T01:27:22.089Z,52.90
2017-12-06T01:29:49.621Z,53.00
2017-12-06T01:32:18.065Z,52.80
2017-12-06T01:34:45.585Z,53.00
2017-12-06T01:37:13.853Z,53.00
2017-12-06T01:39:41.373Z,52.90
2017-12-06T01:42:08.865Z,53.10
2017-12-06T01:44:37.329Z,52.90
2017-12-06T01:47:04.845Z,53.10
2017-12-06T01:49:33.129Z,53.10
2017-12-06T01:52:00.646Z,53.10
2017-12-06T01:54:30.098Z,53.50
2017-12-06T01:56:57.588Z,53.50
2017-12-06T01:59:25.111Z,53.60
2017-12-06T02:01:52.617Z,53.50
2017-12-06T02:04:21.116Z,53.60
2017-12-06T02:06:49.380Z,53.60
2017-12-06T02:09:17.642Z,53.50
2017-12-06T02:11:45.262Z,53.50
2017-12-06T02:14:12.757Z,53.50
2017-12-06T02:16:40.257Z,53.40
2017-12-06T02:19:07.781Z,53.60
2017-12-06T02:21:36.790Z,53.50
2017-12-06T02:24:05.074Z,53.60
2017-12-06T02:26:34.354Z,53.60
2017-12-06T02:29:01.837Z,53.60
2017-12-06T02:31:29.341Z,53.60
2017-12-06T02:33:56.863Z,53.60
2017-12-06T02:36:25.317Z,53.50
2017-12-06T02:38:53.578Z,53.60
2017-12-06T02:41:33.041Z,53.60
2017-12-06T02:44:12.377Z,53.60
2017-12-06T02:46:39.901Z,53.60
2017-12-06T02:49:08.904Z,53.60
2017-12-06T02:51:37.177Z,53.60
2017-12-06T02:54:05.465Z,54.20
2017-12-06T02:56:33.730Z,53.60
2017-12-06T02:59:02.025Z,53.60
2017-12-06T03:01:29.517Z,53.50
2017-12-06T03:03:57.033Z,53.60
2017-12-06T03:06:25.321Z,53.60
2017-12-06T03:08:52.819Z,53.60
2017-12-06T03:11:20.317Z,53.50
2017-12-06T03:13:48.605Z,53.50
2017-12-06T03:16:17.170Z,53.50
2017-12-06T03:18:45.465Z,53.50
2017-12-06T03:21:12.952Z,53.40
2017-12-06T03:23:42.425Z,53.50
2017-12-06T03:26:09.921Z,53.40
2017-12-06T03:28:37.441Z,53.30
2017-12-06T03:31:04.975Z,53.30
2017-12-06T03:33:32.515Z,53.30
2017-12-06T03:36:01.522Z,53.20
2017-12-06T03:38:29.053Z,53.20
2017-12-06T03:40:56.560Z,53.30
2017-12-06T03:43:24.062Z,53.20
2017-12-06T03:45:51.585Z,53.10
2017-12-06T03:48:19.082Z,53.20
2017-12-06T03:50:46.594Z,53.10
2017-12-06T03:53:14.089Z,53.10
2017-12-06T03:55:43.561Z,53.00
2017-12-06T03:58:11.057Z,53.00
2017-12-06T04:00:38.581Z,52.90
2017-12-06T04:03:06.073Z,52.90
2017-12-06T04:05:33.593Z,53.00
2017-12-06T04:08:03.048Z,52.90
2017-12-06T04:10:31.314Z,53.10
2017-12-06T04:12:59.577Z,53.10
2017-12-06T04:15:27.104Z,53.00
2017-12-06T04:17:54.597Z,53.00
2017-12-06T04:20:22.093Z,53.10
2017-12-06T04:22:49.610Z,53.20
2017-12-06T04:25:17.137Z,53.10
2017-12-06T04:27:44.629Z,53.10
2017-12-06T04:30:12.153Z,53.00
2017-12-06T04:32:39.642Z,53.00
2017-12-06T04:35:07.934Z,52.90
2017-12-06T04:37:36.245Z,53.00
2017-12-06T04:40:05.738Z,53.00
2017-12-06T04:42:33.243Z,52.90
2017-12-06T04:45:00.769Z,52.90
2017-12-06T04:47:28.262Z,52.90
2017-12-06T04:49:57.501Z,53.00
2017-12-06T04:52:25.023Z,53.00
2017-12-06T04:54:56.011Z,53.00
2017-12-06T04:57:24.473Z,52.90
2017-12-06T04:59:51.989Z,52.90
2017-12-06T05:02:19.489Z,52.90
2017-12-06T05:04:47.010Z,52.80
2017-12-06T05:07:14.505Z,53.00
2017-12-06T05:09:42.021Z,53.00
2017-12-06T05:12:09.532Z,53.00
2017-12-06T05:14:38.985Z,53.00
2017-12-06T05:17:06.481Z,53.00
2017-12-06T05:19:33.973Z,52.90
2017-12-06T05:22:01.503Z,52.90
2017-12-06T05:24:29.022Z,52.90
2017-12-06T05:26:57.460Z,52.90
2017-12-06T05:29:24.985Z,52.90
2017-12-06T05:31:52.492Z,52.90
2017-12-06T05:34:20.014Z,53.50
2017-12-06T05:36:47.569Z,53.00
2017-12-06T05:39:15.817Z,52.90
2017-12-06T05:41:44.086Z,52.80
2017-12-06T05:44:12.351Z,52.80
2017-12-06T05:46:40.649Z,52.80
2017-12-06T05:49:08.154Z,52.80
2017-12-06T05:51:35.654Z,52.80
2017-12-06T05:54:03.933Z,52.80
2017-12-06T05:56:31.465Z,52.80
2017-12-06T05:58:59.758Z,52.80
2017-12-06T06:01:28.014Z,52.80
2017-12-06T06:03:55.529Z,52.80
2017-12-06T06:06:23.034Z,52.80
2017-12-06T06:08:51.321Z,52.70
2017-12-06T06:11:19.598Z,52.70
2017-12-06T06:13:47.865Z,52.80
2017-12-06T06:16:16.157Z,52.30
2017-12-06T06:18:44.425Z,52.70
2017-12-06T06:21:12.694Z,52.70
2017-12-06T06:23:40.983Z,52.80
2017-12-06T06:26:08.520Z,52.70
2017-12-06T06:28:36.030Z,52.70
2017-12-06T06:31:03.517Z,52.70
2017-12-06T06:33:31.802Z,52.90
2017-12-06T06:35:59.292Z,52.90
2017-12-06T06:38:26.814Z,52.80
2017-12-06T06:40:54.314Z,53.20
2017-12-06T06:43:21.842Z,53.10
2017-12-06T06:45:50.109Z,52.80
2017-12-06T06:48:18.393Z,52.70
2017-12-06T06:50:46.659Z,52.70
2017-12-06T06:53:14.159Z,52.60
2017-12-06T06:55:41.676Z,52.70
2017-12-06T06:58:09.956Z,52.60
2017-12-06T07:00:38.217Z,52.60
2017-12-06T07:03:05.737Z,52.60
2017-12-06T07:05:34.347Z,52.60
2017-12-06T07:08:02.274Z,52.60
2017-12-06T07:10:30.345Z,52.60
2017-12-06T07:12:59.438Z,52.60
2017-12-06T07:18:03.361Z,52.60
2017-12-06T07:20:31.242Z,52.70
2017-12-06T07:22:59.674Z,52.70
2017-12-06T07:25:27.966Z,52.80
2017-12-06T07:27:55.482Z,52.70
2017-12-06T07:30:23.202Z,52.70
2017-12-06T07:32:51.066Z,53.10
2017-12-06T07:35:19.136Z,52.90
2017-12-06T07:37:47.922Z,52.80
2017-12-06T07:40:16.232Z,53.40
2017-12-06T07:42:43.766Z,52.80
2017-12-06T07:45:11.294Z,52.80
2017-12-06T07:47:38.821Z,52.80
2017-12-06T07:50:07.850Z,52.80
2017-12-06T07:52:37.377Z,52.80
2017-12-06T07:55:04.880Z,52.80
2017-12-06T07:57:33.177Z,53.30
2017-12-06T08:00:01.450Z,53.40
2017-12-06T08:02:29.717Z,52.80
2017-12-06T08:04:58.009Z,52.80
2017-12-06T08:07:26.493Z,52.80
2017-12-06T08:09:54.005Z,52.80
2017-12-06T08:12:21.541Z,52.80
2017-12-06T08:14:49.050Z,53.10
2017-12-06T08:17:17.333Z,52.80
2017-12-06T08:19:44.838Z,52.80
2017-12-06T08:22:12.366Z,52.80
2017-12-06T08:24:40.879Z,52.80
2017-12-06T08:27:08.389Z,52.80
2017-12-06T08:29:35.909Z,52.80
2017-12-06T08:32:04.177Z,52.80
2017-12-06T08:34:31.677Z,52.80
2017-12-06T08:36:59.202Z,52.80
2017-12-06T08:39:27.469Z,53.20
2017-12-06T08:41:54.994Z,52.80
2017-12-06T08:44:22.493Z,52.80
2017-12-06T08:46:50.786Z,52.80
2017-12-06T08:49:19.053Z,52.80
2017-12-06T08:51:48.333Z,52.80
2017-12-06T08:54:15.833Z,52.80
2017-12-06T08:56:43.361Z,52.80
2017-12-06T08:59:11.657Z,52.80
2017-12-06T09:01:39.158Z,52.80
2017-12-06T09:04:06.662Z,52.80
2017-12-06T09:06:34.963Z,52.80
2017-12-06T09:09:02.462Z,52.70
2017-12-06T09:11:29.965Z,52.80
2017-12-06T09:13:57.493Z,52.80
2017-12-06T09:16:24.993Z,52.80
2017-12-06T09:18:52.506Z,52.80
2017-12-06T09:21:20.036Z,52.80
2017-12-06T09:23:47.537Z,52.70
2017-12-06T09:26:15.810Z,52.70
2017-12-06T09:28:44.098Z,52.70
2017-12-06T09:31:12.557Z,52.70
2017-12-06T09:33:40.842Z,52.70
2017-12-06T09:36:09.110Z,52.70
2017-12-06T09:38:37.400Z,52.70
2017-12-06T09:41:04.905Z,52.70
2017-12-06T09:43:32.397Z,52.70
2017-12-06T09:46:00.681Z,52.80
2017-12-06T09:48:28.947Z,52.70
2017-12-06T09:50:57.216Z,52.70
2017-12-06T09:53:25.505Z,52.70
2017-12-06T09:55:53.010Z,52.70
2017-12-06T09:58:20.514Z,52.70
2017-12-06T10:00:48.805Z,52.80
2017-12-06T10:03:16.305Z,52.70
2017-12-06T10:05:44.797Z,52.70
2017-12-06T10:08:12.321Z,52.70
2017-12-06T10:10:39.822Z,52.80
2017-12-06T10:13:09.281Z,52.70
2017-12-06T10:15:36.781Z,53.40
2017-12-06T10:18:05.993Z,53.50
2017-12-06T10:20:34.281Z,52.50
2017-12-06T10:23:01.777Z,52.50
2017-12-06T10:25:29.278Z,52.60
2017-12-06T10:27:57.564Z,52.50
2017-12-06T10:30:25.829Z,52.50
2017-12-06T10:32:54.122Z,52.50
2017-12-06T10:35:21.621Z,52.50
2017-12-06T10:37:49.131Z,52.50
2017-12-06T10:40:16.654Z,52.50
2017-12-06T10:42:45.141Z,52.50
2017-12-06T10:45:13.429Z,52.30
2017-12-06T10:47:41.713Z,52.50
2017-12-06T10:50:09.985Z,52.50
2017-12-06T10:52:38.273Z,52.50
2017-12-06T10:55:05.780Z,52.50
2017-12-06T10:57:33.283Z,52.40
2017-12-06T11:00:00.801Z,52.40
2017-12-06T11:02:28.310Z,52.40
2017-12-06T11:04:55.821Z,52.40
2017-12-06T11:07:23.316Z,52.40
2017-12-06T11:09:50.813Z,52.40
2017-12-06T11:12:18.333Z,52.40
2017-12-06T11:14:45.833Z,52.50
2017-12-06T11:17:13.334Z,52.40
2017-12-06T11:19:41.616Z,52.40
2017-12-06T11:22:09.105Z,52.40
2017-12-06T11:24:36.597Z,52.40
2017-12-06T11:27:04.886Z,53.00
2017-12-06T11:29:33.150Z,52.40
2017-12-06T11:32:01.413Z,52.90
2017-12-06T11:34:28.946Z,52.40
2017-12-06T11:36:56.450Z,52.30
2017-12-06T11:39:25.658Z,52.30
2017-12-06T11:41:54.935Z,52.30
2017-12-06T11:44:23.204Z,52.40
2017-12-06T11:46:50.697Z,52.30
2017-12-06T11:49:18.209Z,52.30
2017-12-06T11:51:46.657Z,52.30
2017-12-06T11:54:14.153Z,52.30
2017-12-06T11:56:43.186Z,52.30
2017-12-06T11:59:11.638Z,52.30
2017-12-06T12:01:39.925Z,52.30
2017-12-06T12:04:08.190Z,52.30
2017-12-06T12:06:36.487Z,52.40
2017-12-06T12:09:06.001Z,52.40
2017-12-06T12:11:33.498Z,52.30
2017-12-06T12:14:01.023Z,52.30
2017-12-06T12:16:28.517Z,52.30
2017-12-06T12:18:56.018Z,52.30
2017-12-06T12:21:23.538Z,52.20
2017-12-06T12:23:51.035Z,52.20
2017-12-06T12:26:20.534Z,52.30
2017-12-06T12:28:48.033Z,52.30
2017-12-06T12:31:15.533Z,52.30
2017-12-06T12:33:43.840Z,52.30
2017-12-06T12:36:11.339Z,52.30
2017-12-06T12:38:38.861Z,52.30
2017-12-06T12:41:06.366Z,52.30
2017-12-06T12:43:34.635Z,52.30
2017-12-06T12:46:02.929Z,53.10
2017-12-06T12:48:31.197Z,52.30
2017-12-06T12:50:59.490Z,52.30
2017-12-06T12:53:26.990Z,52.30
2017-12-06T12:55:55.479Z,52.30
2017-12-06T12:58:23.033Z,52.30
2017-12-06T13:00:51.978Z,52.20
2017-12-06T13:03:19.475Z,52.30
2017-12-06T13:05:47.006Z,52.30
2017-12-06T13:08:14.534Z,52.20
2017-12-06T13:10:42.833Z,52.30
2017-12-06T13:13:10.354Z,52.30
2017-12-06T13:15:38.618Z,51.90
2017-12-06T13:18:06.121Z,52.30
2017-12-06T13:20:33.643Z,52.30
2017-12-06T13:23:01.909Z,52.30
2017-12-06T13:25:29.405Z,52.30
2017-12-06T13:27:56.929Z,52.30
2017-12-06T13:30:25.201Z,52.10
2017-12-06T13:32:53.485Z,52.30
2017-12-06T13:35:21.773Z,52.60
2017-12-06T13:37:50.037Z,52.30
2017-12-06T13:40:18.310Z,52.30
2017-12-06T13:42:45.829Z,52.30
2017-12-06T13:45:13.321Z,52.30
2017-12-06T13:47:41.610Z,52.30
2017-12-06T13:50:09.874Z,52.30
2017-12-06T13:52:38.142Z,52.30
2017-12-06T13:55:07.170Z,52.40
2017-12-06T13:57:35.631Z,52.30
2017-12-06T14:00:03.895Z,52.40
2017-12-06T14:02:32.186Z,52.90
2017-12-06T14:04:59.702Z,52.30
2017-12-06T14:07:27.258Z,52.30
2017-12-06T14:09:56.741Z,52.30
2017-12-06T14:12:24.238Z,52.30
2017-12-06T14:14:51.744Z,52.30
2017-12-06T14:17:19.269Z,52.80
2017-12-06T14:19:47.537Z,52.40
2017-12-06T14:22:15.801Z,52.30
2017-12-06T14:24:44.090Z,51.90
2017-12-06T14:27:12.349Z,52.40
2017-12-06T14:29:39.869Z,52.40
2017-12-06T14:32:07.357Z,53.10
2017-12-06T14:34:34.862Z,52.40
2017-12-06T14:37:02.381Z,52.40
2017-12-06T14:39:30.647Z,53.00
2017-12-06T14:41:58.169Z,52.30
2017-12-06T14:44:26.618Z,52.40
2017-12-06T14:46:54.110Z,52.30
2017-12-06T14:49:21.624Z,52.40
2017-12-06T14:51:49.890Z,52.30
2017-12-06T14:54:18.178Z,52.40
2017-12-06T14:56:46.445Z,52.40
2017-12-06T14:59:14.710Z,52.40
2017-12-06T15:01:44.971Z,52.40
2017-12-06T15:04:12.470Z,52.40
2017-12-06T15:06:40.061Z,52.30
2017-12-06T15:09:09.388Z,52.30
2017-12-06T15:11:36.894Z,52.30
2017-12-06T15:14:04.409Z,52.30
2017-12-06T15:16:33.562Z,52.40
2017-12-06T15:19:01.860Z,52.30
2017-12-06T15:21:29.360Z,52.30
2017-12-06T15:23:56.865Z,52.30
2017-12-06T15:26:25.150Z,52.40
2017-12-06T15:28:52.654Z,52.40
2017-12-06T15:31:20.182Z,52.40
2017-12-06T15:33:47.679Z,52.40
2017-12-06T15:36:15.184Z,52.30
2017-12-06T15:38:42.709Z,53.00
2017-12-06T15:41:10.986Z,52.40
2017-12-06T15:43:39.274Z,52.40
2017-12-06T15:46:07.532Z,52.40
2017-12-06T15:48:35.789Z,53.00
2017-12-06T15:51:03.314Z,52.40
2017-12-06T15:56:24.814Z,52.40
2017-12-06T15:58:53.101Z,52.40
2017-12-06T16:01:20.604Z,52.40
2017-12-06T16:03:50.067Z,52.40
2017-12-06T16:06:17.565Z,52.30
2017-12-06T16:08:45.065Z,52.40
2017-12-06T16:11:12.589Z,52.40
2017-12-06T16:13:40.099Z,52.40
2017-12-06T16:16:07.624Z,52.40
2017-12-06T16:18:35.907Z,52.40
2017-12-06T16:21:03.401Z,52.40
2017-12-06T16:23:32.892Z,52.40
2017-12-06T16:26:00.393Z,52.40
2017-12-06T16:28:27.917Z,52.30
2017-12-06T16:30:55.406Z,52.30
2017-12-06T16:33:22.926Z,52.30
2017-12-06T16:36:02.344Z,52.30
2017-12-06T16:38:29.865Z,52.30
2017-12-06T16:40:57.365Z,52.40
2017-12-06T16:43:24.865Z,53.00
2017-12-06T16:45:52.396Z,52.40
2017-12-06T16:48:19.892Z,52.30
2017-12-06T16:50:48.182Z,51.90
2017-12-06T16:53:16.445Z,52.30
2017-12-06T16:55:44.726Z,52.30
2017-12-06T16:58:12.987Z,52.30
2017-12-06T17:00:40.490Z,52.30
2017-12-06T17:03:08.022Z,52.30
2017-12-06T17:05:36.286Z,52.30
2017-12-06T17:08:04.567Z,52.30
2017-12-06T17:10:33.783Z,52.30
2017-12-06T17:13:01.313Z,52.30
2017-12-06T17:15:29.573Z,52.30
2017-12-06T17:17:57.098Z,52.20
2017-12-06T17:20:24.622Z,52.30
2017-12-06T17:22:53.861Z,52.30
2017-12-06T17:25:21.389Z,52.30
2017-12-06T17:27:48.893Z,52.30
2017-12-06T17:30:28.342Z,52.30
2017-12-06T17:32:56.797Z,52.30
2017-12-06T17:35:24.302Z,52.30
2017-12-06T17:37:52.617Z,52.30
2017-12-06T17:40:20.115Z,52.30
2017-12-06T17:42:47.769Z,52.20
2017-12-06T17:45:15.269Z,52.20
2017-12-06T17:47:42.766Z,52.20
2017-12-06T17:50:24.335Z,52.20
2017-12-06T17:52:52.712Z,52.20
2017-12-06T17:55:20.237Z,52.20
2017-12-06T17:57:47.732Z,52.20
2017-12-06T18:00:15.233Z,52.20
2017-12-06T18:02:43.525Z,52.30
2017-12-06T18:05:11.985Z,52.20
2017-12-06T18:07:40.266Z,52.70
2017-12-06T18:10:08.525Z,52.20
2017-12-06T18:12:36.052Z,52.20
2017-12-06T18:15:03.576Z,52.20
2017-12-06T18:17:31.108Z,52.20
2017-12-06T18:19:59.423Z,52.20
2017-12-06T18:22:26.950Z,52.20
2017-12-06T18:24:55.237Z,52.20
2017-12-06T18:27:22.729Z,52.20
2017-12-06T18:29:51.161Z,52.20
2017-12-06T18:32:19.441Z,52.20
2017-12-06T18:34:47.706Z,52.20
2017-12-06T18:37:16.954Z,52.20
2017-12-06T18:39:44.459Z,52.20
2017-12-06T18:42:12.732Z,52.20
2017-12-06T18:44:41.018Z,52.20
2017-12-06T18:47:09.281Z,52.10
2017-12-06T18:49:37.569Z,52.20
2017-12-06T18:52:05.838Z,52.20
2017-12-06T18:54:34.107Z,52.10
2017-12-06T18:57:02.394Z,52.20
2017-12-06T18:59:30.661Z,52.20
2017-12-06T19:02:00.917Z,52.20
2017-12-06T19:04:28.416Z,52.10
2017-12-06T19:06:55.918Z,52.20
2017-12-06T19:09:23.432Z,52.20
2017-12-06T19:11:50.940Z,52.20
2017-12-06T19:14:20.459Z,52.10
2017-12-06T19:16:47.955Z,52.20
2017-12-06T19:19:16.373Z,52.20
2017-12-06T19:21:43.894Z,52.20
2017-12-06T19:24:12.334Z,52.20
2017-12-06T19:26:39.859Z,52.20
2017-12-06T19:29:07.358Z,52.10
2017-12-06T19:31:34.853Z,52.00
2017-12-06T19:34:04.134Z,52.20
2017-12-06T19:36:31.633Z,52.10
2017-12-06T19:38:59.162Z,52.10
2017-12-06T19:41:27.438Z,51.90
2017-12-06T19:43:55.698Z,51.90
2017-12-06T19:46:24.012Z,51.90
2017-12-06T19:48:51.688Z,51.90
2017-12-06T19:51:19.266Z,52.00
2017-12-06T19:53:46.803Z,52.00
2017-12-06T19:56:14.301Z,52.10
2017-12-06T19:58:42.589Z,52.10
2017-12-06T20:01:10.554Z,52.10
2017-12-06T20:03:38.541Z,52.00
2017-12-06T20:06:06.542Z,52.00
2017-12-06T20:08:35.534Z,52.00
2017-12-06T20:11:03.604Z,52.00
2017-12-06T20:13:31.675Z,52.00
2017-12-06T20:15:59.643Z,52.10
2017-12-06T20:18:27.610Z,52.00
2017-12-06T20:20:55.782Z,52.00
2017-12-06T20:23:23.555Z,52.00
2017-12-06T20:25:51.092Z,52.00
2017-12-06T20:28:20.709Z,52.00
2017-12-06T20:30:49.206Z,52.00
2017-12-06T20:33:16.829Z,52.20
2017-12-06T20:35:44.358Z,52.10
2017-12-06T20:38:12.637Z,51.80
2017-12-06T20:40:40.133Z,52.00
2017-12-06T20:43:07.654Z,52.20
2017-12-06T20:45:36.853Z,52.20
2017-12-06T20:48:05.143Z,52.10
2017-12-06T20:50:32.649Z,52.10
2017-12-06T20:53:00.182Z,52.20
2017-12-06T20:55:27.673Z,52.10
2017-12-06T20:57:55.177Z,52.00
2017-12-06T21:00:22.697Z,52.00
2017-12-06T21:02:51.153Z,52.10
2017-12-06T21:05:18.673Z,51.90
2017-12-06T21:07:46.181Z,52.30
2017-12-06T21:10:13.701Z,52.00
2017-12-06T21:12:41.193Z,52.20
2017-12-06T21:15:08.715Z,52.10
2017-12-06T21:17:36.217Z,52.00
2017-12-06T21:20:05.677Z,52.10
2017-12-06T21:22:33.177Z,52.30
2017-12-06T21:25:00.673Z,52.30
2017-12-06T21:27:28.206Z,52.20
2017-12-06T21:29:56.465Z,52.20
2017-12-06T21:32:24.593Z,52.20
2017-12-06T21:34:52.138Z,52.30
2017-12-06T21:37:20.118Z,52.30
2017-12-06T21:39:47.779Z,52.30
2017-12-06T21:42:16.464Z,52.30
2017-12-06T21:44:44.957Z,52.30
2017-12-06T21:47:12.898Z,52.40
2017-12-06T21:49:40.421Z,52.40
2017-12-06T21:52:08.720Z,53.10
2017-12-06T21:54:37.002Z,52.20
2017-12-06T21:57:04.493Z,52.30
2017-12-06T21:59:32.022Z,52.30
2017-12-06T22:01:59.525Z,52.20
2017-12-06T22:04:30.497Z,52.30
2017-12-06T22:06:59.669Z,52.20
2017-12-06T22:09:27.188Z,52.20
2017-12-06T22:11:55.637Z,52.20
2017-12-06T22:14:23.919Z,52.30
2017-12-06T22:16:51.412Z,52.30
2017-12-06T22:19:18.933Z,52.30
2017-12-06T22:21:46.433Z,52.30
2017-12-06T22:24:13.962Z,52.30
2017-12-06T22:26:41.460Z,52.30
2017-12-06T22:29:08.961Z,52.30
2017-12-06T22:31:36.481Z,52.30
2017-12-06T22:34:03.987Z,52.30
2017-12-06T22:36:31.514Z,52.10
2017-12-06T22:38:59.782Z,52.30
2017-12-06T22:41:28.073Z,52.30
2017-12-06T22:43:56.334Z,52.20
2017-12-06T22:46:24.593Z,52.20
2017-12-06T22:48:52.113Z,52.20
2017-12-06T22:51:19.620Z,52.20
2017-12-06T22:53:47.881Z,51.70
2017-12-06T22:56:16.325Z,52.30
2017-12-06T22:58:43.813Z,52.30
2017-12-06T23:01:11.337Z,52.20
2017-12-06T23:03:38.857Z,52.20
2017-12-06T23:06:09.106Z,52.20
2017-12-06T23:08:36.605Z,52.20
2017-12-06T23:11:04.101Z,52.20
2017-12-06T23:13:31.631Z,52.20
2017-12-06T23:15:59.889Z,52.20
2017-12-06T23:18:27.409Z,52.10
2017-12-06T23:20:54.909Z,52.70
2017-12-06T23:23:22.651Z,52.10
2017-12-06T23:25:50.493Z,52.10
2017-12-06T23:28:18.398Z,52.20
2017-12-06T23:30:45.926Z,52.10
2017-12-06T23:33:13.453Z,51.90
2017-12-06T23:35:42.990Z,51.90
2017-12-06T23:38:10.477Z,51.90
2017-12-06T23:40:37.971Z,52.00
2017-12-06T23:43:05.500Z,52.00
2017-12-06T23:45:33.804Z,51.70
2017-12-06T23:48:01.480Z,51.90
2017-12-06T23:50:28.994Z,52.00
2017-12-06T23:52:58.013Z,52.00
2017-12-06T23:55:25.505Z,51.90
2017-12-06T23:57:53.025Z,52.60
